createdAt,value
2023-02-13T00:00:54.707Z,0.00
2023-02-13T00:01:54.600Z,0.00
2023-02-13T00:02:54.577Z,0.00
2023-02-13T00:03:54.672Z,0.00
2023-02-13T00:04:54.574Z,0.00
2023-02-13T00:05:54.524Z,0.00
2023-02-13T00:06:54.504Z,0.00
2023-02-13T00:07:54.485Z,0.00
2023-02-13T00:08:54.487Z,0.00
2023-02-13T00:09:54.477Z,0.00
2023-02-13T00:10:54.458Z,0.00
2023-02-13T00:11:54.424Z,0.00
2023-02-13T00:12:54.402Z,0.00
2023-02-13T00:13:54.381Z,0.00
2023-02-13T00:14:54.397Z,0.00
2023-02-13T00:15:54.407Z,0.00
2023-02-13T00:16:54.328Z,0.00
2023-02-13T00:17:54.346Z,0.00
2023-02-13T00:18:54.298Z,0.00
2023-02-13T00:19:54.308Z,0.00
2023-02-13T00:20:54.664Z,0.00
2023-02-13T00:21:54.243Z,0.00
2023-02-13T00:22:54.216Z,0.00
2023-02-13T00:23:54.206Z,0.00
2023-02-13T00:24:54.217Z,0.00
2023-02-13T00:25:54.168Z,0.00
2023-02-13T00:26:54.151Z,0.00
2023-02-13T00:27:54.149Z,0.00
2023-02-13T00:28:54.115Z,0.00
2023-02-13T00:29:54.124Z,0.00
2023-02-13T00:30:54.149Z,0.00
2023-02-13T00:31:54.136Z,0.00
2023-02-13T00:32:54.039Z,0.00
2023-02-13T00:33:54.018Z,0.00
2023-02-13T00:34:54.030Z,0.00
2023-02-13T00:35:53.982Z,0.00
2023-02-13T00:36:53.961Z,0.00
2023-02-13T00:37:53.945Z,0.00
2023-02-13T00:38:53.937Z,0.00
2023-02-13T00:39:53.944Z,0.00
2023-02-13T00:40:53.888Z,0.00
2023-02-13T00:41:53.871Z,0.00
2023-02-13T00:42:53.875Z,0.00
2023-02-13T00:43:53.837Z,0.00
2023-02-13T00:44:53.849Z,0.00
2023-02-13T00:45:53.801Z,0.00
2023-02-13T00:46:53.772Z,0.00
2023-02-13T00:47:53.754Z,0.00
2023-02-13T00:48:53.740Z,0.00
2023-02-13T00:49:53.753Z,0.00
2023-02-13T00:50:53.696Z,0.00
2023-02-13T00:51:53.682Z,0.00
2023-02-13T00:52:53.665Z,0.00
2023-02-13T00:53:53.643Z,0.00
2023-02-13T00:54:54.360Z,0.00
2023-02-13T00:55:53.615Z,0.00
2023-02-13T00:56:53.589Z,0.00
2023-02-13T00:57:53.576Z,0.00
2023-02-13T00:58:53.555Z,0.00
2023-02-13T00:59:53.578Z,0.00
2023-02-13T01:00:53.516Z,0.00
2023-02-13T01:01:53.599Z,0.00
2023-02-13T01:02:53.478Z,0.00
2023-02-13T01:03:53.515Z,0.00
2023-02-13T01:04:53.473Z,0.00
2023-02-13T01:05:53.425Z,0.00
2023-02-13T01:06:53.412Z,0.00
2023-02-13T01:07:53.398Z,0.00
2023-02-13T01:08:53.379Z,0.00
2023-02-13T01:09:53.389Z,0.00
2023-02-13T01:10:53.344Z,0.00
2023-02-13T01:11:53.318Z,0.00
2023-02-13T01:12:53.328Z,0.00
2023-02-13T01:13:53.285Z,0.00
2023-02-13T01:14:53.299Z,0.00
2023-02-13T01:15:53.316Z,0.00
2023-02-13T01:16:54.246Z,0.00
2023-02-13T01:17:53.210Z,0.00
2023-02-13T01:18:53.197Z,0.00
2023-02-13T01:19:53.205Z,0.00
2023-02-13T01:20:53.161Z,0.00
2023-02-13T01:21:53.139Z,0.00
2023-02-13T01:22:53.122Z,0.00
2023-02-13T01:23:53.102Z,0.00
2023-02-13T01:24:53.116Z,0.00
2023-02-13T01:25:53.077Z,0.00
2023-02-13T01:26:53.047Z,0.00
2023-02-13T01:27:53.016Z,0.00
2023-02-13T01:28:54.015Z,0.00
2023-02-13T01:29:53.021Z,0.00
2023-02-13T01:30:52.980Z,0.00
2023-02-13T01:31:53.037Z,0.00
2023-02-13T01:32:52.931Z,0.00
2023-02-13T01:33:52.922Z,0.00
2023-02-13T01:34:52.923Z,0.00
2023-02-13T01:35:52.885Z,0.00
2023-02-13T01:36:52.861Z,0.00
2023-02-13T01:37:52.842Z,0.00
2023-02-13T01:38:52.832Z,0.00
2023-02-13T01:39:52.832Z,0.00
2023-02-13T01:40:52.789Z,0.00
2023-02-13T01:41:52.771Z,0.00
2023-02-13T01:42:52.750Z,0.00
2023-02-13T01:43:53.304Z,0.00
2023-02-13T01:44:52.742Z,0.00
2023-02-13T01:45:52.692Z,0.00
2023-02-13T01:46:52.712Z,0.00
2023-02-13T01:47:52.658Z,0.00
2023-02-13T01:48:55.274Z,0.00
2023-02-13T01:49:52.645Z,0.00
2023-02-13T01:50:52.603Z,0.00
2023-02-13T01:51:52.583Z,0.00
2023-02-13T01:52:52.561Z,0.00
2023-02-13T01:53:52.550Z,0.00
2023-02-13T01:54:52.555Z,0.00
2023-02-13T01:55:52.509Z,0.00
2023-02-13T01:56:52.496Z,0.00
2023-02-13T01:57:52.472Z,0.00
2023-02-13T01:58:52.452Z,0.00
2023-02-13T01:59:52.469Z,0.00
2023-02-13T02:00:53.160Z,0.00
2023-02-13T02:01:52.495Z,0.00
2023-02-13T02:02:52.530Z,0.00
2023-02-13T02:03:52.373Z,0.00
2023-02-13T02:04:52.373Z,0.00
2023-02-13T02:05:52.331Z,0.00
2023-02-13T02:06:52.308Z,0.00
2023-02-13T02:07:52.289Z,0.00
2023-02-13T02:08:52.267Z,0.00
2023-02-13T02:09:52.281Z,0.00
2023-02-13T02:10:52.238Z,0.00
2023-02-13T02:11:52.226Z,0.00
2023-02-13T02:12:52.208Z,0.00
2023-02-13T02:13:52.214Z,0.00
2023-02-13T02:14:53.191Z,0.00
2023-02-13T02:15:52.183Z,0.00
2023-02-13T02:16:52.125Z,0.00
2023-02-13T02:17:52.115Z,0.00
2023-02-13T02:18:52.097Z,0.00
2023-02-13T02:19:52.101Z,0.00
2023-02-13T02:20:52.059Z,0.00
2023-02-13T02:21:52.043Z,0.00
2023-02-13T02:22:52.046Z,0.00
2023-02-13T02:23:52.000Z,0.00
2023-02-13T02:24:52.015Z,0.00
2023-02-13T02:25:51.968Z,0.00
2023-02-13T02:26:51.941Z,0.00
2023-02-13T02:27:51.925Z,0.00
2023-02-13T02:28:51.937Z,0.00
2023-02-13T02:29:51.930Z,0.00
2023-02-13T02:30:51.971Z,0.00
2023-02-13T02:31:51.906Z,0.00
2023-02-13T02:32:51.832Z,0.00
2023-02-13T02:33:51.846Z,0.00
2023-02-13T02:34:51.822Z,0.00
2023-02-13T02:35:51.779Z,0.00
2023-02-13T02:36:51.756Z,0.00
2023-02-13T02:37:51.736Z,0.00
2023-02-13T02:38:51.720Z,0.00
2023-02-13T02:39:51.709Z,0.00
2023-02-13T02:40:51.709Z,0.00
2023-02-13T02:41:51.666Z,0.00
2023-02-13T02:42:51.645Z,0.00
2023-02-13T02:43:51.623Z,0.00
2023-02-13T02:44:51.600Z,0.00
2023-02-13T02:45:51.616Z,0.00
2023-02-13T02:46:51.591Z,0.00
2023-02-13T02:47:51.549Z,0.00
2023-02-13T02:48:52.268Z,0.00
2023-02-13T02:49:51.507Z,0.00
2023-02-13T02:50:51.513Z,0.00
2023-02-13T02:51:51.472Z,0.00
2023-02-13T02:52:51.450Z,0.00
2023-02-13T02:53:51.434Z,0.00
2023-02-13T02:54:51.414Z,0.00
2023-02-13T02:55:51.430Z,0.00
2023-02-13T02:56:51.373Z,0.00
2023-02-13T02:57:51.358Z,0.00
2023-02-13T02:58:51.336Z,0.00
2023-02-13T02:59:51.324Z,0.00
2023-02-13T03:00:51.351Z,0.00
2023-02-13T03:01:51.290Z,0.00
2023-02-13T03:02:51.256Z,0.00
2023-02-13T03:03:51.262Z,0.00
2023-02-13T03:04:51.234Z,0.00
2023-02-13T03:05:51.232Z,0.00
2023-02-13T03:06:51.174Z,0.00
2023-02-13T03:07:51.164Z,0.00
2023-02-13T03:08:51.135Z,0.00
2023-02-13T03:09:51.118Z,0.00
2023-02-13T03:10:51.131Z,0.00
2023-02-13T03:11:51.079Z,0.00
2023-02-13T03:12:51.062Z,0.00
2023-02-13T03:13:51.051Z,0.00
2023-02-13T03:14:51.041Z,0.00
2023-02-13T03:15:51.035Z,0.00
2023-02-13T03:16:50.990Z,0.00
2023-02-13T03:17:50.970Z,0.00
2023-02-13T03:18:50.949Z,0.00
2023-02-13T03:19:50.932Z,0.00
2023-02-13T03:20:50.941Z,0.00
2023-02-13T03:21:50.903Z,0.00
2023-02-13T03:22:50.876Z,0.00
2023-02-13T03:23:50.857Z,0.00
2023-02-13T03:24:50.840Z,0.00
2023-02-13T03:25:50.855Z,0.00
2023-02-13T03:26:50.905Z,0.00
2023-02-13T03:27:50.780Z,0.00
2023-02-13T03:28:50.764Z,0.00
2023-02-13T03:29:50.743Z,0.00
2023-02-13T03:30:50.776Z,0.00
2023-02-13T03:31:50.829Z,0.00
2023-02-13T03:32:50.689Z,0.00
2023-02-13T03:33:50.663Z,0.00
2023-02-13T03:34:50.644Z,0.00
2023-02-13T03:35:50.655Z,0.00
2023-02-13T03:36:50.606Z,0.00
2023-02-13T03:37:50.588Z,0.00
2023-02-13T03:38:50.581Z,0.00
2023-02-13T03:39:50.552Z,0.00
2023-02-13T03:40:50.563Z,0.00
2023-02-13T03:41:50.513Z,0.00
2023-02-13T03:42:50.493Z,0.00
2023-02-13T03:43:50.475Z,0.00
2023-02-13T03:44:50.457Z,0.00
2023-02-13T03:45:50.508Z,0.00
2023-02-13T03:46:50.423Z,0.00
2023-02-13T03:47:50.417Z,0.00
2023-02-13T03:48:50.378Z,0.00
2023-02-13T03:49:50.387Z,0.00
2023-02-13T03:50:50.375Z,0.00
2023-02-13T03:51:50.333Z,0.00
2023-02-13T03:52:50.317Z,0.00
2023-02-13T03:53:50.290Z,0.00
2023-02-13T03:54:50.270Z,0.00
2023-02-13T03:55:50.299Z,0.00
2023-02-13T03:56:50.231Z,0.00
2023-02-13T03:57:50.215Z,0.00
2023-02-13T03:58:50.195Z,0.00
2023-02-13T03:59:50.227Z,0.00
2023-02-13T04:00:50.265Z,0.00
2023-02-13T04:02:23.789Z,0.00
2023-02-13T04:02:50.135Z,0.00
2023-02-13T04:03:50.097Z,0.00
2023-02-13T04:04:51.100Z,0.00
2023-02-13T04:05:50.103Z,0.00
2023-02-13T04:06:50.048Z,0.00
2023-02-13T04:07:50.076Z,0.00
2023-02-13T04:08:50.044Z,0.00
2023-02-13T04:09:49.997Z,0.00
2023-02-13T04:10:50.621Z,0.00
2023-02-13T04:11:49.961Z,0.00
2023-02-13T04:12:49.934Z,0.00
2023-02-13T04:13:49.918Z,0.00
2023-02-13T04:14:49.902Z,0.00
2023-02-13T04:15:49.914Z,0.00
2023-02-13T04:16:49.902Z,0.00
2023-02-13T04:17:49.847Z,0.00
2023-02-13T04:18:49.845Z,0.00
2023-02-13T04:19:49.802Z,0.00
2023-02-13T04:20:49.820Z,0.00
2023-02-13T04:21:49.771Z,0.00
2023-02-13T04:22:49.748Z,0.00
2023-02-13T04:23:49.723Z,0.00
2023-02-13T04:24:50.721Z,0.00
2023-02-13T04:25:49.722Z,0.00
2023-02-13T04:26:49.678Z,0.00
2023-02-13T04:27:49.658Z,0.00
2023-02-13T04:28:49.651Z,0.00
2023-02-13T04:29:49.624Z,0.00
2023-02-13T04:30:49.739Z,0.00
2023-02-13T04:31:49.691Z,0.00
2023-02-13T04:32:49.602Z,0.00
2023-02-13T04:34:26.647Z,0.00
2023-02-13T04:34:49.531Z,0.00
2023-02-13T04:35:50.157Z,0.00
2023-02-13T04:36:49.499Z,0.00
2023-02-13T04:37:49.509Z,0.00
2023-02-13T04:38:49.458Z,0.00
2023-02-13T04:39:49.439Z,0.00
2023-02-13T04:40:49.459Z,0.00
2023-02-13T04:41:51.107Z,0.00
2023-02-13T04:42:49.389Z,0.00
2023-02-13T04:43:49.362Z,0.00
2023-02-13T04:44:49.355Z,0.00
2023-02-13T04:45:49.387Z,0.00
2023-02-13T04:46:49.340Z,0.00
2023-02-13T04:47:49.297Z,0.00
2023-02-13T04:48:49.274Z,0.00
2023-02-13T04:49:49.260Z,0.00
2023-02-13T04:50:49.265Z,0.00
2023-02-13T04:51:49.232Z,0.00
2023-02-13T04:52:50.202Z,0.00
2023-02-13T04:53:49.181Z,0.00
2023-02-13T04:54:49.164Z,0.00
2023-02-13T04:55:49.178Z,0.00
2023-02-13T04:56:49.126Z,0.00
2023-02-13T04:57:49.108Z,0.00
2023-02-13T04:58:49.127Z,0.00
2023-02-13T04:59:49.075Z,0.00
2023-02-13T05:00:49.095Z,0.00
2023-02-13T05:01:49.137Z,0.00
2023-02-13T05:02:49.021Z,0.00
2023-02-13T05:03:49.032Z,0.00
2023-02-13T05:04:49.064Z,0.00
2023-02-13T05:05:48.993Z,0.00
2023-02-13T05:06:48.947Z,0.00
2023-02-13T05:07:48.933Z,0.00
2023-02-13T05:08:48.913Z,0.00
2023-02-13T05:09:48.887Z,0.00
2023-02-13T05:10:48.898Z,0.00
2023-02-13T05:11:48.855Z,0.00
2023-02-13T05:12:48.837Z,0.00
2023-02-13T05:13:49.755Z,0.00
2023-02-13T05:14:48.813Z,0.00
2023-02-13T05:15:48.827Z,0.00
2023-02-13T05:16:48.758Z,0.00
2023-02-13T05:17:48.743Z,0.00
2023-02-13T05:18:48.723Z,0.00
2023-02-13T05:19:48.708Z,0.00
2023-02-13T05:20:48.729Z,0.00
2023-02-13T05:21:48.674Z,0.00
2023-02-13T05:22:48.653Z,0.00
2023-02-13T05:23:48.635Z,0.00
2023-02-13T05:24:48.615Z,0.00
2023-02-13T05:25:48.592Z,0.00
2023-02-13T05:26:48.610Z,0.00
2023-02-13T05:27:48.555Z,0.00
2023-02-13T05:28:48.542Z,0.00
2023-02-13T05:29:48.525Z,0.00
2023-02-13T05:30:48.514Z,0.00
2023-02-13T05:31:48.629Z,0.00
2023-02-13T05:32:48.466Z,0.00
2023-02-13T05:33:48.455Z,0.00
2023-02-13T05:34:48.428Z,0.00
2023-02-13T05:35:48.414Z,0.00
2023-02-13T05:36:48.422Z,0.00
2023-02-13T05:37:48.373Z,0.00
2023-02-13T05:38:48.367Z,0.00
2023-02-13T05:39:48.331Z,0.00
2023-02-13T05:40:48.311Z,0.00
2023-02-13T05:41:48.332Z,0.00
2023-02-13T05:42:48.287Z,0.00
2023-02-13T05:43:48.264Z,0.00
2023-02-13T05:44:48.240Z,0.00
2023-02-13T05:45:48.238Z,0.00
2023-02-13T05:46:48.233Z,0.00
2023-02-13T05:47:48.186Z,0.00
2023-02-13T05:48:48.173Z,0.00
2023-02-13T05:49:48.749Z,0.00
2023-02-13T05:50:48.141Z,0.00
2023-02-13T05:51:48.144Z,0.00
2023-02-13T05:52:48.093Z,0.00
2023-02-13T05:53:48.077Z,0.00
2023-02-13T05:54:48.072Z,0.00
2023-02-13T05:55:48.073Z,0.00
2023-02-13T05:56:48.738Z,0.00
2023-02-13T05:57:49.003Z,0.00
2023-02-13T05:58:47.982Z,0.00
2023-02-13T05:59:47.962Z,0.00
2023-02-13T06:00:47.956Z,0.00
2023-02-13T06:01:47.952Z,0.00
2023-02-13T06:02:47.979Z,0.00
2023-02-13T06:03:47.983Z,0.00
2023-02-13T06:04:48.743Z,0.00
2023-02-13T06:05:47.845Z,0.00
2023-02-13T06:06:47.853Z,0.00
2023-02-13T06:07:48.742Z,0.00
2023-02-13T06:08:47.790Z,0.00
2023-02-13T06:09:47.776Z,0.00
2023-02-13T06:10:47.751Z,0.00
2023-02-13T06:11:47.764Z,4.00
2023-02-13T06:12:47.713Z,0.00
2023-02-13T06:13:47.696Z,0.00
2023-02-13T06:14:47.702Z,4.00
2023-02-13T06:15:47.684Z,0.00
2023-02-13T06:16:47.639Z,4.00
2023-02-13T06:17:47.619Z,0.00
2023-02-13T06:18:47.600Z,4.00
2023-02-13T06:19:47.618Z,4.00
2023-02-13T06:20:47.574Z,4.00
2023-02-13T06:21:47.579Z,8.00
2023-02-13T06:22:47.529Z,8.00
2023-02-13T06:23:47.513Z,8.00
2023-02-13T06:24:47.491Z,8.00
2023-02-13T06:25:47.471Z,12.00
2023-02-13T06:26:47.480Z,12.00
2023-02-13T06:27:47.435Z,16.00
2023-02-13T06:28:47.433Z,20.00
2023-02-13T06:29:47.402Z,20.00
2023-02-13T06:30:47.445Z,24.00
2023-02-13T06:31:47.401Z,28.00
2023-02-13T06:32:47.349Z,32.00
2023-02-13T06:33:47.332Z,32.00
2023-02-13T06:34:47.309Z,36.00
2023-02-13T06:35:47.287Z,40.00
2023-02-13T06:36:47.298Z,44.00
2023-02-13T06:37:47.249Z,48.00
2023-02-13T06:38:47.232Z,56.00
2023-02-13T06:39:47.216Z,56.00
2023-02-13T06:40:47.208Z,60.00
2023-02-13T06:41:47.215Z,68.00
2023-02-13T06:42:47.168Z,72.00
2023-02-13T06:43:47.136Z,80.00
2023-02-13T06:44:47.133Z,88.00
2023-02-13T06:45:47.258Z,96.00
2023-02-13T06:46:47.194Z,100.00
2023-02-13T06:47:47.068Z,104.00
2023-02-13T06:48:47.045Z,116.00
2023-02-13T06:49:47.030Z,120.00
2023-02-13T06:50:47.023Z,128.00
2023-02-13T06:51:47.019Z,132.00
2023-02-13T06:52:46.973Z,148.00
2023-02-13T06:53:46.975Z,156.00
2023-02-13T06:54:48.227Z,172.00
2023-02-13T06:55:47.910Z,180.00
2023-02-13T06:56:46.918Z,188.00
2023-02-13T06:57:46.879Z,200.00
2023-02-13T06:58:46.856Z,208.00
2023-02-13T06:59:46.854Z,216.00
2023-02-13T07:00:46.858Z,228.00
2023-02-13T07:01:46.837Z,236.00
2023-02-13T07:02:46.823Z,248.00
2023-02-13T07:03:46.771Z,252.00
2023-02-13T07:04:46.746Z,268.00
2023-02-13T07:05:46.743Z,284.00
2023-02-13T07:06:46.743Z,292.00
2023-02-13T07:07:46.697Z,308.00
2023-02-13T07:08:46.672Z,316.00
2023-02-13T07:09:46.654Z,316.00
2023-02-13T07:10:46.638Z,328.00
2023-02-13T07:11:46.649Z,348.00
2023-02-13T07:12:56.798Z,348.00
2023-02-13T07:13:48.573Z,356.00
2023-02-13T07:14:46.592Z,368.00
2023-02-13T07:15:46.563Z,384.00
2023-02-13T07:16:46.550Z,416.00
2023-02-13T07:17:46.503Z,416.00
2023-02-13T07:18:46.495Z,420.00
2023-02-13T07:19:46.465Z,424.00
2023-02-13T07:20:46.442Z,448.00
2023-02-13T07:21:46.455Z,476.00
2023-02-13T07:22:46.413Z,500.00
2023-02-13T07:23:46.390Z,508.00
2023-02-13T07:24:46.374Z,512.00
2023-02-13T07:25:46.363Z,500.00
2023-02-13T07:26:46.431Z,508.00
2023-02-13T07:27:46.340Z,520.00
2023-02-13T07:28:46.300Z,536.00
2023-02-13T07:29:46.289Z,552.00
2023-02-13T07:30:46.266Z,608.00
2023-02-13T07:31:46.317Z,616.00
2023-02-13T07:32:46.224Z,620.00
2023-02-13T07:33:46.202Z,656.00
2023-02-13T07:35:00.641Z,672.00
2023-02-13T07:35:48.177Z,704.00
2023-02-13T07:36:46.192Z,760.00
2023-02-13T07:37:46.130Z,736.00
2023-02-13T07:38:46.117Z,740.00
2023-02-13T07:39:46.097Z,748.00
2023-02-13T07:40:46.092Z,780.00
2023-02-13T07:41:46.094Z,856.00
2023-02-13T07:42:46.043Z,888.00
2023-02-13T07:43:46.026Z,896.00
2023-02-13T07:44:46.004Z,880.00
2023-02-13T07:45:45.989Z,892.00
2023-02-13T07:46:45.986Z,892.00
2023-02-13T07:47:45.978Z,880.00
2023-02-13T07:48:45.942Z,916.00
2023-02-13T07:49:45.937Z,960.00
2023-02-13T07:50:45.897Z,956.00
2023-02-13T07:51:45.903Z,1000.00
2023-02-13T07:52:45.856Z,1028.00
2023-02-13T07:53:45.837Z,1020.00
2023-02-13T07:54:45.828Z,1060.00
2023-02-13T07:55:45.817Z,1064.00
2023-02-13T07:56:45.783Z,1092.00
2023-02-13T07:57:45.789Z,1220.00
2023-02-13T07:58:45.747Z,1216.00
2023-02-13T07:59:45.723Z,1220.00
2023-02-13T08:00:45.710Z,1204.00
2023-02-13T08:01:45.773Z,1180.00
2023-02-13T08:02:45.671Z,1264.00
2023-02-13T08:03:45.676Z,1272.00
2023-02-13T08:04:45.640Z,1340.00
2023-02-13T08:05:45.617Z,1348.00
2023-02-13T08:06:45.608Z,1448.00
2023-02-13T08:07:45.629Z,1464.00
2023-02-13T08:08:45.569Z,1500.00
2023-02-13T08:09:45.561Z,1496.00
2023-02-13T08:10:45.532Z,1552.00
2023-02-13T08:11:45.537Z,1564.00
2023-02-13T08:12:45.502Z,1528.00
2023-02-13T08:13:45.478Z,1588.00
2023-02-13T08:14:45.452Z,1628.00
2023-02-13T08:15:45.436Z,1520.00
2023-02-13T08:16:45.476Z,1504.00
2023-02-13T08:17:45.439Z,1548.00
2023-02-13T08:18:45.388Z,1644.00
2023-02-13T08:19:45.370Z,1708.00
2023-02-13T08:20:45.373Z,1692.00
2023-02-13T08:21:45.331Z,1716.00
2023-02-13T08:22:45.342Z,1784.00
2023-02-13T08:23:45.348Z,1948.00
2023-02-13T08:24:45.271Z,1968.00
2023-02-13T08:25:45.253Z,1912.00
2023-02-13T08:26:45.232Z,1796.00
2023-02-13T08:27:45.249Z,1992.00
2023-02-13T08:28:45.325Z,2080.00
2023-02-13T08:29:45.178Z,2224.00
2023-02-13T08:30:45.252Z,2276.00
2023-02-13T08:31:45.161Z,2000.00
2023-02-13T08:32:53.782Z,2140.00
2023-02-13T08:33:47.104Z,2216.00
2023-02-13T08:34:45.087Z,2252.00
2023-02-13T08:35:45.064Z,2348.00
2023-02-13T08:36:45.045Z,2264.00
2023-02-13T08:37:46.627Z,2300.00
2023-02-13T08:38:45.013Z,2212.00
2023-02-13T08:39:45.701Z,2244.00
2023-02-13T08:40:44.969Z,2200.00
2023-02-13T08:41:44.949Z,2252.00
2023-02-13T08:42:44.955Z,2412.00
2023-02-13T08:43:44.917Z,2536.00
2023-02-13T08:44:44.893Z,2460.00
2023-02-13T08:45:44.918Z,2396.00
2023-02-13T08:46:44.851Z,2316.00
2023-02-13T08:47:44.862Z,2272.00
2023-02-13T08:48:44.811Z,2328.00
2023-02-13T08:49:44.799Z,2388.00
2023-02-13T08:50:44.784Z,2776.00
2023-02-13T08:51:44.763Z,2776.00
2023-02-13T08:52:44.776Z,2768.00
2023-02-13T08:53:44.725Z,2852.00
2023-02-13T08:54:44.707Z,3016.00
2023-02-13T08:55:44.686Z,2992.00
2023-02-13T08:56:44.669Z,2908.00
2023-02-13T08:57:44.679Z,2880.00
2023-02-13T08:58:44.637Z,2760.00
2023-02-13T08:59:44.617Z,2952.00
2023-02-13T09:00:44.599Z,2992.00
2023-02-13T09:01:44.634Z,3496.00
2023-02-13T09:02:45.638Z,4280.00
2023-02-13T09:03:44.545Z,4240.00
2023-02-13T09:04:44.520Z,4340.00
2023-02-13T09:05:44.504Z,4072.00
2023-02-13T09:06:44.488Z,3720.00
2023-02-13T09:07:44.503Z,3680.00
2023-02-13T09:08:44.451Z,3984.00
2023-02-13T09:09:44.433Z,4028.00
2023-02-13T09:10:44.416Z,4152.00
2023-02-13T09:11:44.390Z,4360.00
2023-02-13T09:12:44.404Z,4720.00
2023-02-13T09:13:44.364Z,5288.00
2023-02-13T09:14:44.338Z,5184.00
2023-02-13T09:15:44.318Z,4536.00
2023-02-13T09:16:44.338Z,4612.00
2023-02-13T09:17:44.312Z,4668.00
2023-02-13T09:18:44.263Z,5336.00
2023-02-13T09:19:44.255Z,5800.00
2023-02-13T09:20:44.234Z,5812.00
2023-02-13T09:21:44.214Z,5664.00
2023-02-13T09:22:44.240Z,5684.00
2023-02-13T09:23:44.201Z,5716.00
2023-02-13T09:24:44.150Z,6148.00
2023-02-13T09:25:48.096Z,6088.00
2023-02-13T09:26:44.126Z,6536.00
2023-02-13T09:27:44.146Z,7264.00
2023-02-13T09:28:44.221Z,6600.00
2023-02-13T09:29:44.083Z,6136.00
2023-02-13T09:30:44.115Z,6316.00
2023-02-13T09:31:44.125Z,6628.00
2023-02-13T09:32:44.059Z,7476.00
2023-02-13T09:33:44.013Z,9128.00
2023-02-13T09:34:43.990Z,9672.00
2023-02-13T09:35:43.968Z,10308.00
2023-02-13T09:36:43.951Z,17120.00
2023-02-13T09:37:43.972Z,14300.00
2023-02-13T09:38:43.926Z,15200.00
2023-02-13T09:39:43.900Z,22272.00
2023-02-13T09:40:43.885Z,21856.00
2023-02-13T09:41:43.895Z,22560.00
2023-02-13T09:42:43.881Z,14656.00
2023-02-13T09:43:43.841Z,17568.00
2023-02-13T09:44:43.816Z,20224.00
2023-02-13T09:45:43.795Z,29440.00
2023-02-13T09:46:43.808Z,24608.00
2023-02-13T09:47:43.793Z,26368.00
2023-02-13T09:48:43.743Z,22016.00
2023-02-13T09:49:43.735Z,40160.00
2023-02-13T09:50:43.711Z,20416.00
2023-02-13T09:51:44.696Z,157024.00
2023-02-13T09:52:43.706Z,26720.00
2023-02-13T09:53:43.674Z,46272.00
2023-02-13T09:54:43.640Z,43680.00
2023-02-13T09:55:43.619Z,40608.00
2023-02-13T09:56:43.595Z,38912.00
2023-02-13T09:57:43.606Z,25728.00
2023-02-13T09:58:43.554Z,36256.00
2023-02-13T09:59:43.532Z,31776.00
2023-02-13T10:00:43.517Z,30400.00
2023-02-13T10:01:43.501Z,31392.00
2023-02-13T10:02:43.500Z,32032.00
2023-02-13T10:03:43.444Z,22784.00
2023-02-13T10:04:43.469Z,37120.00
2023-02-13T10:05:43.400Z,41920.00
2023-02-13T10:06:43.457Z,34816.00
2023-02-13T10:07:43.395Z,33920.00
2023-02-13T10:08:43.331Z,21440.00
2023-02-13T10:09:43.313Z,26528.00
2023-02-13T10:10:43.299Z,41952.00
2023-02-13T10:11:43.301Z,40064.00
2023-02-13T10:12:43.284Z,20320.00
2023-02-13T10:13:43.235Z,29344.00
2023-02-13T10:14:43.206Z,33824.00
2023-02-13T10:15:43.239Z,35424.00
2023-02-13T10:16:43.179Z,20864.00
2023-02-13T10:17:43.175Z,37408.00
2023-02-13T10:18:43.163Z,32128.00
2023-02-13T10:19:43.105Z,39040.00
2023-02-13T10:20:44.081Z,24224.00
2023-02-13T10:21:43.063Z,17856.00
2023-02-13T10:22:43.049Z,21664.00
2023-02-13T10:23:43.053Z,33888.00
2023-02-13T10:24:42.999Z,33728.00
2023-02-13T10:25:42.983Z,23360.00
2023-02-13T10:26:42.960Z,11668.00
2023-02-13T10:27:42.944Z,13240.00
2023-02-13T10:28:43.003Z,22624.00
2023-02-13T10:29:42.913Z,26656.00
2023-02-13T10:30:43.952Z,17600.00
2023-02-13T10:31:42.980Z,27840.00
2023-02-13T10:32:42.843Z,39488.00
2023-02-13T10:33:42.853Z,40320.00
2023-02-13T10:34:42.805Z,42432.00
2023-02-13T10:35:42.785Z,45920.00
2023-02-13T10:36:42.757Z,38112.00
2023-02-13T10:37:42.783Z,17696.00
2023-02-13T10:38:42.751Z,19008.00
2023-02-13T10:39:42.701Z,28256.00
2023-02-13T10:40:42.691Z,35168.00
2023-02-13T10:41:42.661Z,36928.00
2023-02-13T10:42:42.641Z,21632.00
2023-02-13T10:43:42.653Z,28128.00
2023-02-13T10:44:42.604Z,27936.00
2023-02-13T10:45:42.582Z,26208.00
2023-02-13T10:46:42.622Z,31360.00
2023-02-13T10:47:42.537Z,35456.00
2023-02-13T10:48:43.060Z,28064.00
2023-02-13T10:49:42.502Z,19776.00
2023-02-13T10:50:42.478Z,22528.00
2023-02-13T10:51:42.459Z,24416.00
2023-02-13T10:52:42.439Z,22208.00
2023-02-13T10:53:42.445Z,17280.00
2023-02-13T10:54:42.398Z,13232.00
2023-02-13T10:55:42.384Z,12864.00
2023-02-13T10:56:42.361Z,12208.00
2023-02-13T10:57:42.336Z,11684.00
2023-02-13T10:58:42.440Z,11292.00
2023-02-13T10:59:43.179Z,10636.00
2023-02-13T11:00:43.193Z,10260.00
2023-02-13T11:01:44.336Z,10004.00
2023-02-13T11:02:42.236Z,9636.00
2023-02-13T11:03:42.247Z,9504.00
2023-02-13T11:04:42.217Z,9156.00
2023-02-13T11:05:42.172Z,9060.00
2023-02-13T11:06:42.252Z,8956.00
2023-02-13T11:07:42.135Z,8688.00
2023-02-13T11:08:42.147Z,8548.00
2023-02-13T11:09:42.089Z,8464.00
2023-02-13T11:10:42.076Z,8204.00
2023-02-13T11:11:42.058Z,8036.00
2023-02-13T11:12:42.077Z,8060.00
2023-02-13T11:13:42.033Z,8032.00
2023-02-13T11:14:41.983Z,8036.00
2023-02-13T11:15:41.981Z,7892.00
2023-02-13T11:16:41.937Z,7792.00
2023-02-13T11:17:41.915Z,7728.00
2023-02-13T11:18:41.928Z,7728.00
2023-02-13T11:19:41.877Z,7676.00
2023-02-13T11:20:41.849Z,7648.00
2023-02-13T11:21:42.551Z,7696.00
2023-02-13T11:22:41.805Z,7756.00
2023-02-13T11:23:41.817Z,7832.00
2023-02-13T11:24:41.782Z,7652.00
2023-02-13T11:25:41.748Z,7512.00
2023-02-13T11:26:41.717Z,7488.00
2023-02-13T11:27:42.705Z,7440.00
2023-02-13T11:28:41.735Z,7300.00
2023-02-13T11:29:41.673Z,7232.00
2023-02-13T11:30:41.729Z,7072.00
2023-02-13T11:31:41.669Z,7016.00
2023-02-13T11:32:41.596Z,6996.00
2023-02-13T11:33:42.605Z,6940.00
2023-02-13T11:34:41.553Z,6912.00
2023-02-13T11:35:42.510Z,6868.00
2023-02-13T11:36:41.505Z,6780.00
2023-02-13T11:37:42.168Z,6744.00
2023-02-13T11:38:41.499Z,6728.00
2023-02-13T11:39:41.452Z,6692.00
2023-02-13T11:40:41.422Z,6692.00
2023-02-13T11:41:41.397Z,6668.00
2023-02-13T11:42:41.397Z,6684.00
2023-02-13T11:43:41.382Z,6604.00
2023-02-13T11:44:41.334Z,6572.00
2023-02-13T11:45:41.309Z,6568.00
2023-02-13T11:46:41.309Z,6524.00
2023-02-13T11:47:41.273Z,6488.00
2023-02-13T11:48:41.286Z,6460.00
2023-02-13T11:49:41.225Z,6460.00
2023-02-13T11:50:41.197Z,6428.00
2023-02-13T11:51:41.177Z,6380.00
2023-02-13T11:52:41.166Z,6340.00
2023-02-13T11:53:41.166Z,6336.00
2023-02-13T11:54:41.112Z,6316.00
2023-02-13T11:55:41.094Z,6296.00
2023-02-13T11:56:55.710Z,6276.00
2023-02-13T11:57:43.046Z,6264.00
2023-02-13T11:58:41.108Z,6248.00
2023-02-13T11:59:41.008Z,6240.00
2023-02-13T12:00:40.982Z,6236.00
2023-02-13T12:01:40.994Z,6220.00
2023-02-13T12:02:41.028Z,6184.00
2023-02-13T12:03:40.959Z,6156.00
2023-02-13T12:04:40.902Z,6128.00
2023-02-13T12:05:40.879Z,6100.00
2023-02-13T12:06:40.857Z,6092.00
2023-02-13T12:07:40.834Z,6088.00
2023-02-13T12:08:40.844Z,6068.00
2023-02-13T12:09:40.792Z,6060.00
2023-02-13T12:10:40.784Z,6048.00
2023-02-13T12:11:40.753Z,6036.00
2023-02-13T12:12:40.725Z,6040.00
2023-02-13T12:13:40.735Z,6040.00
2023-02-13T12:14:40.686Z,6012.00
2023-02-13T12:15:40.663Z,6000.00
2023-02-13T12:16:40.718Z,5996.00
2023-02-13T12:17:40.614Z,5980.00
2023-02-13T12:18:40.628Z,5952.00
2023-02-13T12:19:40.571Z,5944.00
2023-02-13T12:20:40.553Z,5936.00
2023-02-13T12:21:40.527Z,5932.00
2023-02-13T12:22:40.515Z,5912.00
2023-02-13T12:23:40.526Z,5908.00
2023-02-13T12:24:40.492Z,5876.00
2023-02-13T12:25:40.454Z,5868.00
2023-02-13T12:26:40.420Z,5844.00
2023-02-13T12:27:40.399Z,5836.00
2023-02-13T12:28:40.393Z,5812.00
2023-02-13T12:29:40.428Z,5792.00
2023-02-13T12:30:40.421Z,5784.00
2023-02-13T12:31:40.410Z,5784.00
2023-02-13T12:32:40.287Z,5772.00
2023-02-13T12:33:40.308Z,5764.00
2023-02-13T12:34:40.244Z,5736.00
2023-02-13T12:35:40.221Z,5720.00
2023-02-13T12:36:40.199Z,5708.00
2023-02-13T12:37:40.179Z,5712.00
2023-02-13T12:38:40.185Z,5700.00
2023-02-13T12:39:40.132Z,5684.00
2023-02-13T12:40:40.105Z,5680.00
2023-02-13T12:41:40.085Z,5652.00